Oak Forest, Texas
Current Conditions -  °F | °C
As of 10:15 AM on Monday 24 Nov 2014 (Local Time) from KT20 Reporting Station
Clear Clear  
Wind Chill: 59°   Ceiling: Unl
Heat Index: 59°   Visibility: 10mi
Dew Point: 38°   Wind: 7mph
Humidity: 45%   Direction: 360°N
Pressure: 30.1"   Gusts: NA
Location:  29.481°N, 97.4305°W
Report Text: KT20 241615Z AUTO 36006KT 10SM CLR 15/03 A3010 RMK AO2 T01490031
Loading
Personal Weather Stations






























Interactive Weather Map New forecast layout! Learn more

10-Day Weather Forecast

Advertisements
Track Severe Weather on mobile